Time;durP1;ratioP1;P1;durP2;ratioP2;P2;SDS_P1;SDS_P2;PMS_P1;PMS_P2;Temp;Humidity;BMP_temperature;BMP_pressure;BME280_temperature;BME280_humidity;BME280_pressure;Samples;Min_cycle;Max_cycle;Signal;HPM_P1;HPM_P2
2023/07/05 00:04:22;;;;;;;4.90;2.25;;;19.10;84.40;;;;;;10446051;28;20029;-66
2023/07/05 00:09:22;;;;;;;2.85;2.08;;;19.10;84.60;;;;;;10448293;28;20028;-66
2023/07/05 00:14:23;;;;;;;5.25;2.10;;;19.10;84.60;;;;;;10445210;28;20086;-67
2023/07/05 00:19:24;;;;;;;7.30;2.50;;;19.10;84.70;;;;;;10440538;28;20040;-66
2023/07/05 00:24:24;;;;;;;2.47;1.90;;;19.00;84.70;;;;;;10441516;28;20087;-66
2023/07/05 00:29:26;;;;;;;2.22;1.80;;;19.00;84.80;;;;;;10446468;28;20025;-65
2023/07/05 00:34:27;;;;;;;7.57;2.60;;;19.00;84.80;;;;;;10441065;28;20021;-66
2023/07/05 00:39:28;;;;;;;5.45;2.42;;;19.00;84.90;;;;;;10442146;28;20009;-67
2023/07/05 00:44:29;;;;;;;4.13;2.17;;;19.00;85.00;;;;;;10444755;28;20489;-67
2023/07/05 00:49:31;;;;;;;3.38;2.15;;;19.00;85.00;;;;;;10445304;28;20028;-66
2023/07/05 00:54:42;;;;;;;3.92;2.28;;;19.00;85.10;;;;;;10448061;28;20033;-65
2023/07/05 00:59:48;;;;;;;5.70;2.50;;;18.90;85.20;;;;;;10459485;28;20136;-65
2023/07/05 01:04:49;;;;;;;6.13;2.30;;;18.90;85.30;;;;;;10438676;28;20031;-66
2023/07/05 01:09:50;;;;;;;3.55;2.28;;;18.90;85.30;;;;;;10444581;28;20039;-66
2023/07/05 01:15:01;;;;;;;3.78;2.60;;;18.90;85.30;;;;;;10441490;28;20021;-66
2023/07/05 01:20:30;;;;;;;6.95;3.28;;;18.90;85.60;;;;;;10441599;28;20029;-65
2023/07/05 01:26:02;;;;;;;6.13;2.65;;;18.90;85.80;;;;;;10448060;28;20017;-67
2023/07/05 01:31:03;;;;;;;4.93;2.67;;;18.80;85.90;;;;;;10460818;28;20036;-66
2023/07/05 01:36:05;;;;;;;5.53;2.75;;;18.80;85.70;;;;;;10448086;28;20060;-66
2023/07/05 01:41:07;;;;;;;4.40;2.97;;;18.80;86.30;;;;;;10460274;28;20575;-66
2023/07/05 01:46:21;;;;;;;6.57;3.10;;;18.80;85.80;;;;;;10454531;28;20370;-66
2023/07/05 01:51:39;;;;;;;4.53;3.10;;;18.80;86.00;;;;;;10458067;28;20021;-66
2023/07/05 01:56:55;;;;;;;6.10;3.08;;;18.80;86.00;;;;;;10446831;28;20103;-65
2023/07/05 02:01:58;;;;;;;5.95;3.00;;;18.80;86.30;;;;;;10451117;28;20029;-66
2023/07/05 02:06:59;;;;;;;6.30;3.47;;;18.70;86.10;;;;;;10442830;28;20445;-65
2023/07/05 02:11:59;;;;;;;7.22;3.58;;;18.70;86.20;;;;;;10450313;28;20040;-67
2023/07/05 02:17:00;;;;;;;5.47;3.63;;;18.70;86.20;;;;;;10440785;28;20558;-66
2023/07/05 02:22:02;;;;;;;6.57;4.20;;;18.70;86.30;;;;;;10451190;28;20030;-65
2023/07/05 02:27:03;;;;;;;6.78;3.40;;;18.70;86.40;;;;;;10431822;28;20032;-66
2023/07/05 02:32:04;;;;;;;6.57;3.83;;;18.70;86.40;;;;;;10434602;28;20052;-66
2023/07/05 02:37:05;;;;;;;8.32;3.72;;;18.70;86.50;;;;;;10430381;28;20065;-66
2023/07/05 02:42:06;;;;;;;9.50;3.83;;;18.60;86.60;;;;;;10443917;28;20026;-67
2023/07/05 02:47:07;;;;;;;7.57;4.10;;;18.60;86.70;;;;;;10445861;28;20025;-66
2023/07/05 02:52:07;;;;;;;7.70;3.88;;;18.60;86.70;;;;;;10446547;28;20092;-66
2023/07/05 02:57:08;;;;;;;6.82;4.05;;;18.60;86.80;;;;;;10435943;28;20083;-65
2023/07/05 03:02:10;;;;;;;7.90;4.38;;;18.60;86.90;;;;;;10444403;28;20043;-66
2023/07/05 03:07:11;;;;;;;8.00;4.35;;;18.60;87.00;;;;;;10452557;28;20076;-66
2023/07/05 03:12:11;;;;;;;9.35;4.60;;;18.60;87.10;;;;;;10437662;28;20033;-66
2023/07/05 03:17:12;;;;;;;8.80;4.75;;;18.60;87.20;;;;;;10446228;28;20028;-66
2023/07/05 03:22:14;;;;;;;6.88;4.70;;;18.60;87.20;;;;;;10447972;28;20025;-65
2023/07/05 03:27:14;;;;;;;7.20;4.28;;;18.50;87.20;;;;;;10438769;28;20054;-67
2023/07/05 03:32:15;;;;;;;9.32;4.57;;;18.50;87.30;;;;;;10438831;28;20025;-66
2023/07/05 03:37:15;;;;;;;7.35;4.40;;;18.50;87.50;;;;;;10442639;28;20005;-66
2023/07/05 03:42:16;;;;;;;5.32;3.60;;;18.50;87.50;;;;;;10453026;28;20465;-66
2023/07/05 03:47:16;;;;;;;6.53;4.30;;;18.50;87.60;;;;;;10433315;28;20532;-66
2023/07/05 03:52:17;;;;;;;6.25;4.07;;;18.40;87.60;;;;;;10444808;28;20052;-67
2023/07/05 03:57:18;;;;;;;8.27;3.75;;;18.50;87.70;;;;;;10432775;28;20017;-67
2023/07/05 04:02:18;;;;;;;5.88;3.70;;;18.50;87.80;;;;;;10439600;28;20425;-66
2023/07/05 04:07:21;;;;;;;5.30;3.67;;;18.40;87.80;;;;;;10450244;28;20036;-65
2023/07/05 04:12:22;;;;;;;7.97;4.03;;;18.40;87.90;;;;;;10451009;28;20020;-66
2023/07/05 04:17:23;;;;;;;5.65;3.40;;;18.20;87.80;;;;;;10443972;28;20432;-67
2023/07/05 04:22:23;;;;;;;5.72;3.35;;;18.40;87.90;;;;;;10440450;28;20029;-66
2023/07/05 04:27:24;;;;;;;7.55;3.50;;;18.40;87.90;;;;;;10442454;28;20219;-67
2023/07/05 04:32:25;;;;;;;5.05;2.70;;;18.40;87.90;;;;;;10436372;28;20024;-65
2023/07/05 04:37:26;;;;;;;6.25;3.55;;;18.40;87.90;;;;;;10443112;28;20021;-66
2023/07/05 04:42:26;;;;;;;4.88;2.70;;;18.40;87.90;;;;;;10438714;28;20104;-66
2023/07/05 04:47:27;;;;;;;6.05;2.95;;;18.40;87.90;;;;;;10449568;28;20550;-65
2023/07/05 04:52:28;;;;;;;4.25;2.70;;;18.70;88.00;;;;;;10449771;28;20024;-66
2023/07/05 04:57:28;;;;;;;5.18;2.60;;;18.30;87.70;;;;;;10434611;28;20492;-66
2023/07/05 05:02:29;;;;;;;6.15;3.35;;;18.30;87.70;;;;;;10443527;28;20017;-66
2023/07/05 05:07:29;;;;;;;3.97;2.58;;;18.30;87.60;;;;;;10447536;28;20414;-66
2023/07/05 05:12:30;;;;;;;4.20;2.70;;;18.30;87.50;;;;;;10447255;28;20120;-65
2023/07/05 05:17:31;;;;;;;4.00;2.40;;;18.20;87.40;;;;;;10438954;28;20028;-66
2023/07/05 05:22:31;;;;;;;3.67;2.53;;;18.20;87.30;;;;;;10444498;28;20029;-67
2023/07/05 05:27:32;;;;;;;3.03;2.30;;;18.20;87.30;;;;;;10446532;28;20396;-66
2023/07/05 05:32:33;;;;;;;4.03;2.33;;;18.20;87.20;;;;;;10443216;28;20032;-66
2023/07/05 05:37:34;;;;;;;4.40;2.75;;;18.20;87.20;;;;;;10451809;28;20078;-66
2023/07/05 05:42:35;;;;;;;4.03;2.58;;;18.20;87.10;;;;;;10446200;28;20392;-64
2023/07/05 05:47:36;;;;;;;4.80;2.47;;;18.20;87.00;;;;;;10447062;28;20017;-66
2023/07/05 05:52:36;;;;;;;4.22;2.50;;;18.20;87.00;;;;;;10446389;28;20500;-65
2023/07/05 05:57:37;;;;;;;5.53;2.47;;;18.20;86.90;;;;;;10444746;28;20565;-65
2023/07/05 06:02:38;;;;;;;4.40;2.60;;;18.20;86.80;;;;;;10420757;28;20025;-66
2023/07/05 06:07:39;;;;;;;4.40;2.40;;;18.20;86.70;;;;;;10440991;28;20020;-65
2023/07/05 06:12:41;;;;;;;4.43;2.25;;;18.20;86.60;;;;;;10441533;28;20460;-66
2023/07/05 06:17:42;;;;;;;3.28;2.10;;;18.20;86.60;;;;;;10452963;28;20019;-66
2023/07/05 06:22:43;;;;;;;4.63;2.25;;;18.20;86.50;;;;;;10441552;28;20369;-65
2023/07/05 06:27:43;;;;;;;4.78;2.30;;;18.20;86.50;;;;;;10443260;28;20051;-66
2023/07/05 06:32:47;;;;;;;3.90;2.10;;;18.20;86.40;;;;;;10443806;28;20029;-65
2023/07/05 06:37:48;;;;;;;3.10;2.17;;;18.20;86.40;;;;;;10446889;28;20013;-65
2023/07/05 06:42:48;;;;;;;3.70;2.45;;;18.20;86.40;;;;;;10442313;28;20108;-66
2023/07/05 06:47:50;;;;;;;3.55;2.20;;;18.20;86.30;;;;;;10450542;28;20198;-65
2023/07/05 06:52:50;;;;;;;4.78;2.17;;;18.20;86.20;;;;;;10447244;28;20029;-66
2023/07/05 06:57:51;;;;;;;4.50;2.35;;;17.90;86.00;;;;;;10440851;28;20392;-64
2023/07/05 07:02:52;;;;;;;3.95;2.20;;;18.20;86.10;;;;;;10448915;28;20017;-65
2023/07/05 07:07:52;;;;;;;5.00;2.10;;;18.20;86.00;;;;;;10449303;28;20020;-66
2023/07/05 07:12:53;;;;;;;5.20;2.15;;;18.20;86.00;;;;;;10448855;28;20036;-64
2023/07/05 07:17:53;;;;;;;4.72;2.58;;;18.20;86.10;;;;;;10454159;28;20506;-66
2023/07/05 07:22:54;;;;;;;5.78;1.98;;;18.20;86.30;;;;;;10451269;28;20025;-66
2023/07/05 07:27:55;;;;;;;3.50;1.60;;;18.10;86.40;;;;;;10444664;28;20033;-65
2023/07/05 07:32:55;;;;;;;2.85;1.95;;;18.10;86.50;;;;;;10449908;28;20055;-66
2023/07/05 07:37:56;;;;;;;2.88;1.40;;;18.00;86.60;;;;;;10459165;28;20108;-64
2023/07/05 07:42:56;;;;;;;1.92;1.30;;;17.90;86.50;;;;;;10446229;28;20036;-65
2023/07/05 07:48:03;;;;;;;2.20;1.23;;;17.90;86.60;;;;;;10446125;28;20028;-66
2023/07/05 07:53:04;;;;;;;2.53;1.25;;;17.80;87.20;;;;;;10438527;28;20029;-65
2023/07/05 07:58:04;;;;;;;3.15;1.15;;;17.80;86.50;;;;;;10438772;28;20037;-66
2023/07/05 08:03:05;;;;;;;1.40;0.90;;;17.70;86.40;;;;;;10437252;28;20028;-66
2023/07/05 08:08:06;;;;;;;2.20;0.90;;;17.70;86.40;;;;;;10448234;28;20036;-67
2023/07/05 08:13:06;;;;;;;2.15;0.80;;;17.60;86.30;;;;;;10434178;28;20131;-67
2023/07/05 08:18:07;;;;;;;1.70;0.70;;;17.60;86.20;;;;;;10441248;28;20021;-68
2023/07/05 08:23:07;;;;;;;0.70;0.45;;;17.60;86.20;;;;;;10436266;28;20039;-67
2023/07/05 08:28:11;;;;;;;1.33;0.63;;;17.50;86.20;;;;;;10432825;28;20037;-67
2023/07/05 08:33:15;;;;;;;2.15;0.80;;;17.50;86.30;;;;;;10434479;28;20035;-68
2023/07/05 08:38:19;;;;;;;0.98;0.55;;;17.40;86.30;;;;;;10448317;28;20104;-67
2023/07/05 08:43:34;;;;;;;1.90;0.82;;;17.40;86.30;;;;;;10437791;28;20017;-67
2023/07/05 08:48:35;;;;;;;3.13;0.80;;;17.40;86.40;;;;;;10450747;28;20024;-68
2023/07/05 08:53:47;;;;;;;2.67;1.30;;;17.30;86.50;;;;;;10443107;28;20417;-68
2023/07/05 08:59:13;;;;;;;2.95;0.70;;;17.30;86.70;;;;;;10434840;28;20266;-69
2023/07/05 09:04:25;;;;;;;2.17;0.90;;;17.30;86.80;;;;;;10444905;28;20437;-68
2023/07/05 09:10:07;;;;;;;3.35;0.90;;;17.30;87.30;;;;;;10439675;28;20079;-69
2023/07/05 09:15:37;;;;;;;4.13;1.40;;;17.30;86.90;;;;;;10436401;28;20052;-69
2023/07/05 09:21:03;;;;;;;3.22;0.98;;;17.20;87.00;;;;;;10439087;28;20083;-68
2023/07/05 09:26:13;;;;;;;5.82;0.93;;;17.20;87.00;;;;;;10440754;28;20025;-68
2023/07/05 09:31:14;;;;;;;2.58;1.10;;;17.20;87.00;;;;;;10435192;28;20504;-68
2023/07/05 09:36:24;;;;;;;4.65;1.15;;;17.20;87.00;;;;;;10438918;28;20101;-68
2023/07/05 09:41:47;;;;;;;3.67;1.30;;;17.10;87.10;;;;;;10432395;28;20466;-68
2023/07/05 09:46:49;;;;;;;4.95;2.13;;;17.10;87.50;;;;;;10441925;28;20051;-69
2023/07/05 09:51:51;;;;;;;3.70;1.35;;;17.10;87.30;;;;;;10458499;28;20104;-67
2023/07/05 09:57:04;;;;;;;3.30;0.90;;;17.10;87.40;;;;;;10447114;28;20033;-68
2023/07/05 10:02:12;;;;;;;5.75;0.93;;;17.10;87.60;;;;;;10454773;28;20032;-67
2023/07/05 10:07:18;;;;;;;5.85;1.27;;;17.00;87.70;;;;;;10453695;28;20029;-67
2023/07/05 10:12:20;;;;;;;4.38;0.80;;;16.90;87.80;;;;;;10435992;28;20033;-70
2023/07/05 10:17:21;;;;;;;2.50;0.85;;;17.00;87.90;;;;;;10447535;28;20032;-68
2023/07/05 10:22:26;;;;;;;5.38;1.42;;;17.00;87.90;;;;;;10444857;28;20036;-69
2023/07/05 10:27:32;;;;;;;3.88;1.27;;;17.00;88.00;;;;;;10442872;28;20101;-68
2023/07/05 10:32:34;;;;;;;3.47;1.10;;;17.00;88.10;;;;;;10437548;28;20028;-68
2023/07/05 10:37:38;;;;;;;6.57;1.10;;;16.90;88.10;;;;;;10454265;28;20039;-67
2023/07/05 10:42:46;;;;;;;4.90;1.17;;;16.90;88.20;;;;;;10443342;28;20666;-68
2023/07/05 10:47:52;;;;;;;1.67;0.90;;;16.90;88.30;;;;;;10450227;28;20029;-68
2023/07/05 10:53:05;;;;;;;5.97;1.20;;;16.90;88.50;;;;;;10449623;28;20100;-68
2023/07/05 10:58:13;;;;;;;2.72;1.40;;;16.90;88.60;;;;;;10447238;28;20103;-68
2023/07/05 11:03:40;;;;;;;4.18;1.25;;;16.80;88.50;;;;;;10446604;28;20178;-68
2023/07/05 11:08:43;;;;;;;3.45;1.20;;;16.90;88.70;;;;;;10459960;28;20571;-68
2023/07/05 11:13:46;;;;;;;3.20;1.38;;;16.90;88.70;;;;;;10442307;28;20040;-67
2023/07/05 11:18:47;;;;;;;5.30;1.20;;;16.90;88.80;;;;;;10455069;28;20067;-69
2023/07/05 11:23:50;;;;;;;3.38;1.30;;;16.80;88.70;;;;;;10449188;28;20021;-68
2023/07/05 11:28:50;;;;;;;5.55;1.20;;;16.90;88.80;;;;;;10450858;28;20523;-67
2023/07/05 11:34:25;;;;;;;4.20;1.10;;;16.90;88.80;;;;;;10442610;28;20028;-68
2023/07/05 11:39:36;;;;;;;3.75;1.15;;;16.90;89.20;;;;;;10443312;28;20071;-68
2023/07/05 11:44:36;;;;;;;4.38;1.17;;;16.90;88.90;;;;;;10442691;28;20108;-67
2023/07/05 11:49:42;;;;;;;4.95;0.93;;;16.90;88.80;;;;;;10450326;28;20029;-67
2023/07/05 11:54:45;;;;;;;2.55;1.10;;;16.90;88.90;;;;;;10454843;28;20485;-67
2023/07/05 12:00:17;;;;;;;4.68;1.17;;;16.90;88.90;;;;;;10442733;28;20017;-67
2023/07/05 12:05:20;;;;;;;3.15;0.88;;;16.90;89.30;;;;;;10438123;28;20048;-68
2023/07/05 12:10:26;;;;;;;7.05;1.77;;;16.90;88.90;;;;;;10437439;28;20168;-68
2023/07/05 12:15:28;;;;;;;3.88;1.20;;;16.90;88.90;;;;;;10438258;28;20032;-67
2023/07/05 12:20:37;;;;;;;2.95;1.38;;;16.90;88.90;;;;;;10439563;28;20025;-67
2023/07/05 12:25:37;;;;;;;4.65;1.23;;;16.90;89.00;;;;;;10442204;28;20021;-68
2023/07/05 12:30:42;;;;;;;3.78;1.10;;;16.90;89.00;;;;;;10441211;28;20036;-67
2023/07/05 12:35:42;;;;;;;6.68;1.73;;;16.90;88.90;;;;;;10434125;28;20489;-68
2023/07/05 12:40:54;;;;;;;3.85;1.10;;;17.00;88.80;;;;;;10441149;28;20104;-68
2023/07/05 12:46:14;;;;;;;4.75;1.23;;;17.00;88.90;;;;;;10438234;28;20029;-67
2023/07/05 12:51:23;;;;;;;3.83;1.27;;;17.00;89.00;;;;;;10449250;28;20045;-67
2023/07/05 12:56:36;;;;;;;3.30;1.35;;;17.10;89.40;;;;;;10449258;28;20036;-68
2023/07/05 13:01:40;;;;;;;5.13;1.83;;;17.10;88.70;;;;;;10439766;28;20036;-67
2023/07/05 13:06:41;;;;;;;5.88;1.42;;;17.20;88.60;;;;;;10448469;28;20107;-67
2023/07/05 13:11:56;;;;;;;4.50;1.42;;;17.20;88.40;;;;;;10434283;28;20612;-68
2023/07/05 13:16:59;;;;;;;5.20;2.05;;;17.30;88.70;;;;;;10444297;28;20060;-68
2023/07/05 13:22:33;;;;;;;3.20;1.23;;;17.30;88.40;;;;;;10444084;28;20033;-67
2023/07/05 13:27:37;;;;;;;5.43;1.48;;;17.40;88.50;;;;;;10449473;28;20040;-67
2023/07/05 13:32:45;;;;;;;6.53;1.52;;;17.40;88.30;;;;;;10444113;28;20521;-69
2023/07/05 13:37:46;;;;;;;;;;;17.50;88.30;;;;;;10447562;28;20088;-67
2023/07/05 13:42:48;;;;;;;4.57;1.40;;;17.50;88.90;;;;;;10437146;28;20004;-67
2023/07/05 13:47:49;;;;;;;5.10;1.38;;;17.50;88.10;;;;;;10444988;28;20028;-67
2023/07/05 13:52:49;;;;;;;3.53;1.30;;;17.50;88.10;;;;;;10443004;28;20026;-68
2023/07/05 13:58:02;;;;;;;2.28;1.00;;;17.60;88.10;;;;;;10455756;28;20014;-67
2023/07/05 14:03:03;;;;;;;4.55;1.35;;;17.60;88.20;;;;;;10447380;28;20033;-68
2023/07/05 14:08:08;;;;;;;3.35;1.80;;;17.70;88.00;;;;;;10450589;28;20024;-66
2023/07/05 14:13:14;;;;;;;5.80;1.48;;;17.70;87.90;;;;;;10442030;28;20366;-66
2023/07/05 14:18:17;;;;;;;2.00;1.33;;;17.70;88.00;;;;;;10449174;28;20025;-65
2023/07/05 14:23:18;;;;;;;2.65;1.23;;;17.70;88.10;;;;;;10449212;28;20520;-65
2023/07/05 14:28:19;;;;;;;4.70;1.33;;;17.70;88.00;;;;;;10450272;28;20033;-65
2023/07/05 14:33:19;;;;;;;5.35;1.65;;;17.80;87.90;;;;;;10441812;28;20193;-66
2023/07/05 14:38:21;;;;;;;3.92;1.45;;;17.80;87.70;;;;;;10438503;28;20119;-66
2023/07/05 14:43:22;;;;;;;5.47;1.75;;;17.80;87.70;;;;;;10459993;28;20032;-65
2023/07/05 14:48:23;;;;;;;3.00;1.60;;;17.80;87.60;;;;;;10446485;28;20516;-66
2023/07/05 14:53:27;;;;;;;2.17;1.17;;;17.90;87.60;;;;;;10445943;28;20021;-65
2023/07/05 14:58:28;;;;;;;2.97;1.50;;;17.80;87.50;;;;;;10432462;28;20049;-65
2023/07/05 15:03:31;;;;;;;3.55;1.48;;;17.90;87.50;;;;;;10442188;28;20152;-65
2023/07/05 15:08:33;;;;;;;3.40;1.55;;;17.90;87.50;;;;;;10447471;28;20056;-66
2023/07/05 15:13:35;;;;;;;2.42;1.40;;;17.90;87.40;;;;;;10449598;28;20108;-65
2023/07/05 15:18:36;;;;;;;2.50;1.20;;;18.00;87.40;;;;;;10451433;28;20086;-66
2023/07/05 15:23:37;;;;;;;4.07;1.40;;;18.00;87.30;;;;;;10454041;28;20518;-66
2023/07/05 15:28:39;;;;;;;2.40;1.30;;;18.10;87.00;;;;;;10439117;28;20057;-66
2023/07/05 15:33:40;;;;;;;2.55;1.30;;;18.30;86.70;;;;;;10443464;28;20758;-66
2023/07/05 15:38:41;;;;;;;3.10;1.30;;;18.40;87.00;;;;;;10443851;28;20021;-65
2023/07/05 15:43:42;;;;;;;2.55;1.30;;;18.50;86.30;;;;;;10448376;28;20029;-65
2023/07/05 15:48:43;;;;;;;3.55;1.58;;;18.50;86.20;;;;;;10440246;28;20100;-66
2023/07/05 15:53:44;;;;;;;3.88;1.30;;;18.70;85.90;;;;;;10439322;28;20017;-67
2023/07/05 15:58:48;;;;;;;3.17;1.15;;;18.70;85.80;;;;;;10447829;28;20013;-66
2023/07/05 16:03:49;;;;;;;2.60;1.42;;;18.70;85.80;;;;;;10443297;28;20088;-65
2023/07/05 16:08:49;;;;;;;2.47;1.38;;;18.70;86.00;;;;;;10447318;28;20074;-66
2023/07/05 16:13:50;;;;;;;2.28;1.40;;;18.60;86.10;;;;;;10442144;28;20477;-66
2023/07/05 16:18:51;;;;;;;2.95;1.40;;;18.60;86.20;;;;;;10447071;28;20021;-66
2023/07/05 16:23:52;;;;;;;3.20;1.52;;;18.60;86.30;;;;;;10453986;28;20025;-66
2023/07/05 16:28:52;;;;;;;4.35;1.45;;;18.50;86.40;;;;;;10448346;28;20024;-66
2023/07/05 16:33:54;;;;;;;2.53;1.42;;;18.50;86.50;;;;;;10441655;28;20099;-66
2023/07/05 16:38:55;;;;;;;2.92;1.45;;;18.50;86.50;;;;;;10440434;28;20503;-64
2023/07/05 16:43:55;;;;;;;3.10;1.55;;;18.50;86.50;;;;;;10447405;28;20016;-65
2023/07/05 16:48:56;;;;;;;3.15;1.52;;;18.50;86.50;;;;;;10443529;28;20232;-66
2023/07/05 16:53:57;;;;;;;3.47;1.23;;;18.40;86.60;;;;;;10435574;28;20037;-66
2023/07/05 16:58:58;;;;;;;3.53;1.92;;;18.50;86.70;;;;;;10447920;28;20012;-67
2023/07/05 17:03:59;;;;;;;3.55;1.50;;;18.40;86.80;;;;;;10440042;28;20412;-66
2023/07/05 17:09:01;;;;;;;1.88;1.38;;;18.40;86.90;;;;;;10440814;28;20060;-67
2023/07/05 17:14:02;;;;;;;2.78;1.55;;;18.40;86.90;;;;;;10441059;28;20026;-67
2023/07/05 17:19:02;;;;;;;2.63;1.50;;;18.40;86.90;;;;;;10442190;28;20543;-65
2023/07/05 17:24:04;;;;;;;6.03;1.60;;;18.40;87.00;;;;;;10432155;28;20020;-67
2023/07/05 17:29:05;;;;;;;3.47;1.48;;;18.40;87.10;;;;;;10440378;28;20558;-65
2023/07/05 17:34:05;;;;;;;3.58;1.70;;;18.40;87.20;;;;;;10435131;28;20029;-66
2023/07/05 17:39:07;;;;;;;5.20;1.70;;;18.40;87.30;;;;;;10442008;28;20106;-66
2023/07/05 17:44:08;;;;;;;3.15;1.20;;;18.40;87.30;;;;;;10440385;28;20397;-66
2023/07/05 17:49:09;;;;;;;4.22;1.80;;;18.40;87.30;;;;;;10454195;28;20320;-67
2023/07/05 17:54:11;;;;;;;3.95;1.75;;;18.40;87.40;;;;;;10434378;28;20667;-66
2023/07/05 17:59:12;;;;;;;3.28;1.70;;;18.40;87.50;;;;;;10443007;28;20014;-67
2023/07/05 18:04:12;;;;;;;2.92;1.50;;;18.30;87.60;;;;;;10439485;28;20021;-66
2023/07/05 18:09:13;;;;;;;2.58;1.40;;;18.30;87.70;;;;;;10447360;28;20040;-66
2023/07/05 18:14:13;;;;;;;3.38;1.85;;;18.30;87.80;;;;;;10438492;28;20032;-66
2023/07/05 18:19:15;;;;;;;2.72;1.75;;;18.30;87.80;;;;;;10446091;28;20052;-66
2023/07/05 18:24:15;;;;;;;2.42;1.75;;;18.30;87.80;;;;;;10441716;28;20040;-66
2023/07/05 18:29:16;;;;;;;2.72;1.63;;;18.30;87.90;;;;;;10439890;28;20035;-66
2023/07/05 18:34:17;;;;;;;2.20;1.48;;;18.30;88.00;;;;;;10450768;28;20124;-66
2023/07/05 18:39:18;;;;;;;3.70;1.70;;;18.20;88.00;;;;;;10440107;28;20409;-67
2023/07/05 18:44:19;;;;;;;2.08;1.60;;;18.20;88.00;;;;;;10436413;28;20021;-67
2023/07/05 18:49:20;;;;;;;1.95;1.58;;;18.20;88.10;;;;;;10450713;28;20028;-67
2023/07/05 18:54:21;;;;;;;3.90;1.63;;;18.20;88.10;;;;;;10435494;28;20033;-66
2023/07/05 18:59:23;;;;;;;2.70;1.42;;;18.20;88.10;;;;;;10441022;28;20021;-67
2023/07/05 19:04:23;;;;;;;2.22;1.40;;;18.20;88.20;;;;;;10438692;28;20025;-66
2023/07/05 19:09:24;;;;;;;2.65;1.42;;;18.10;88.10;;;;;;10430665;28;20029;-67
2023/07/05 19:14:25;;;;;;;3.38;1.67;;;18.10;88.10;;;;;;10432941;28;20013;-67
2023/07/05 19:19:25;;;;;;;3.17;1.40;;;18.10;88.10;;;;;;10441715;28;20017;-66
2023/07/05 19:24:26;;;;;;;2.20;1.45;;;18.10;88.10;;;;;;10436977;28;20051;-66
2023/07/05 19:29:26;;;;;;;2.35;1.50;;;18.00;88.10;;;;;;10431525;28;20053;-67
2023/07/05 19:34:27;;;;;;;3.90;1.40;;;18.00;88.10;;;;;;10438649;28;20037;-67
2023/07/05 19:39:28;;;;;;;3.97;1.65;;;18.00;88.10;;;;;;10440811;28;20031;-66
2023/07/05 19:44:28;;;;;;;2.42;1.35;;;18.00;88.10;;;;;;10439650;28;20404;-66
2023/07/05 19:49:29;;;;;;;2.55;1.65;;;18.00;88.00;;;;;;10443227;28;20020;-65
2023/07/05 19:54:30;;;;;;;3.55;1.40;;;18.00;88.00;;;;;;10441654;28;20543;-66
2023/07/05 19:59:31;;;;;;;3.85;1.30;;;18.00;88.00;;;;;;10447710;28;20027;-66
2023/07/05 20:04:32;;;;;;;2.20;1.30;;;18.00;88.00;;;;;;10447157;28;20028;-64
2023/07/05 20:09:33;;;;;;;2.35;1.33;;;17.90;88.60;;;;;;10442482;28;20017;-66
2023/07/05 20:14:34;;;;;;;2.17;1.27;;;17.90;88.10;;;;;;10434787;28;20024;-66
2023/07/05 20:19:35;;;;;;;2.50;1.33;;;17.90;88.10;;;;;;10439684;28;20398;-66
2023/07/05 20:24:36;;;;;;;2.13;1.30;;;17.90;88.10;;;;;;10432374;28;20040;-67
2023/07/05 20:29:37;;;;;;;2.83;1.40;;;17.90;88.10;;;;;;10441117;28;20312;-66
2023/07/05 20:34:38;;;;;;;2.45;1.15;;;17.80;88.10;;;;;;10442293;28;20555;-67
2023/07/05 20:39:39;;;;;;;2.15;1.25;;;17.80;88.20;;;;;;10439753;28;20486;-66
2023/07/05 20:44:39;;;;;;;2.03;1.30;;;17.80;88.30;;;;;;10440465;28;20025;-67
2023/07/05 20:49:40;;;;;;;2.03;1.40;;;17.80;88.30;;;;;;10439999;28;20101;-67
2023/07/05 20:54:41;;;;;;;2.30;1.48;;;17.70;88.30;;;;;;10439665;28;20078;-65
2023/07/05 20:59:42;;;;;;;2.67;1.20;;;17.70;88.40;;;;;;10440472;28;20519;-67
2023/07/05 21:04:43;;;;;;;1.75;1.30;;;17.70;88.40;;;;;;10445455;28;20025;-66
2023/07/05 21:09:44;;;;;;;3.13;1.65;;;17.70;88.50;;;;;;10445179;28;20138;-67
2023/07/05 21:14:45;;;;;;;1.58;1.20;;;17.60;88.50;;;;;;10450042;28;20017;-67
2023/07/05 21:19:46;;;;;;;5.55;1.70;;;17.60;88.50;;;;;;10445997;28;20088;-65
2023/07/05 21:24:47;;;;;;;2.15;1.30;;;17.60;88.50;;;;;;10441777;28;20036;-65
2023/07/05 21:29:48;;;;;;;3.25;1.70;;;17.60;88.50;;;;;;10441503;28;20094;-67
2023/07/05 21:34:48;;;;;;;2.45;1.48;;;17.60;88.50;;;;;;10444353;28;20042;-66
2023/07/05 21:39:49;;;;;;;3.15;1.33;;;17.60;88.50;;;;;;10446105;28;20430;-66
2023/07/05 21:44:50;;;;;;;2.15;1.42;;;17.50;88.50;;;;;;10447286;28;20074;-66
2023/07/05 21:49:51;;;;;;;4.30;1.65;;;17.50;88.50;;;;;;10456388;28;20381;-66
2023/07/05 21:54:51;;;;;;;2.72;1.40;;;17.50;88.40;;;;;;10457169;28;20017;-66
2023/07/05 21:59:52;;;;;;;3.33;1.80;;;17.50;88.40;;;;;;10451781;28;20481;-66
2023/07/05 22:04:53;;;;;;;1.85;1.38;;;17.50;88.40;;;;;;10461078;28;20128;-67
2023/07/05 22:09:53;;;;;;;2.65;1.20;;;17.50;88.40;;;;;;10458551;28;20029;-65
2023/07/05 22:14:54;;;;;;;2.10;1.33;;;17.50;88.50;;;;;;10450993;28;20029;-66
2023/07/05 22:19:55;;;;;;;2.10;1.42;;;17.40;88.40;;;;;;10439694;28;20104;-66
2023/07/05 22:24:56;;;;;;;2.88;1.30;;;17.40;88.50;;;;;;10436574;28;20029;-66
2023/07/05 22:29:58;;;;;;;5.00;1.67;;;17.40;88.50;;;;;;10442850;28;20029;-66
2023/07/05 22:35:01;;;;;;;3.58;1.70;;;17.40;88.50;;;;;;10440217;28;20024;-66
2023/07/05 22:40:12;;;;;;;3.95;1.50;;;17.40;88.60;;;;;;10440733;28;20025;-65
2023/07/05 22:45:13;;;;;;;2.10;1.50;;;17.40;88.70;;;;;;10425800;28;20182;-66
2023/07/05 22:50:14;;;;;;;3.45;1.88;;;17.40;88.70;;;;;;10444087;28;20026;-65
2023/07/05 22:55:17;;;;;;;2.17;1.52;;;17.30;88.80;;;;;;10440123;28;20022;-67
2023/07/05 23:00:22;;;;;;;2.25;1.67;;;17.30;88.90;;;;;;10436667;28;20033;-66
2023/07/05 23:05:26;;;;;;;3.30;1.70;;;17.30;88.90;;;;;;10454480;28;20025;-64
2023/07/05 23:10:26;;;;;;;2.92;1.60;;;17.30;89.00;;;;;;10448388;28;20028;-66
2023/07/05 23:15:27;;;;;;;3.20;1.95;;;17.30;89.00;;;;;;10445411;28;20048;-65
2023/07/05 23:20:30;;;;;;;3.15;1.90;;;17.30;89.20;;;;;;10439081;28;20028;-66
2023/07/05 23:25:32;;;;;;;3.40;2.00;;;17.20;89.10;;;;;;10438427;28;20028;-67
2023/07/05 23:30:32;;;;;;;3.20;1.60;;;17.20;89.30;;;;;;10445251;28;20066;-65
2023/07/05 23:35:33;;;;;;;3.60;2.10;;;17.20;89.30;;;;;;10447321;28;20089;-66
2023/07/05 23:40:35;;;;;;;2.72;1.90;;;17.20;90.00;;;;;;10450310;28;20021;-66
2023/07/05 23:45:35;;;;;;;3.85;2.03;;;17.20;89.40;;;;;;10441707;28;20095;-66
2023/07/05 23:50:36;;;;;;;3.03;2.03;;;17.20;89.50;;;;;;10453062;28;20217;-67
2023/07/05 23:55:37;;;;;;;6.20;2.15;;;17.20;89.50;;;;;;10440008;28;20028;-65
